createdAt,value
2022-08-28T00:00:02.747Z,31.09
2022-08-28T00:02:33.798Z,31.15
2022-08-28T00:05:01.602Z,31.22
2022-08-28T00:07:28.678Z,31.16
2022-08-28T00:09:55.239Z,31.43
2022-08-28T00:12:22.017Z,31.32
2022-08-28T00:14:48.566Z,31.09
2022-08-28T00:17:15.141Z,30.89
2022-08-28T00:19:41.768Z,31.13
2022-08-28T00:22:08.341Z,31.16
2022-08-28T00:24:35.058Z,31.45
2022-08-28T00:27:21.302Z,31.34
2022-08-28T00:29:47.846Z,31.26
2022-08-28T00:32:14.875Z,31.24
2022-08-28T00:34:41.414Z,31.43
2022-08-28T00:37:08.116Z,31.50
2022-08-28T00:39:34.662Z,31.50
2022-08-28T00:42:01.696Z,31.56
2022-08-28T00:44:28.946Z,31.37
2022-08-28T00:46:57.860Z,31.61
2022-08-28T00:49:28.489Z,31.60
2022-08-28T00:52:08.567Z,31.59
2022-08-28T00:54:56.832Z,31.59
2022-08-28T00:57:32.074Z,31.65
2022-08-28T00:59:58.750Z,31.63
2022-08-28T01:02:26.574Z,31.66
2022-08-28T01:04:54.367Z,31.55
2022-08-28T01:07:23.144Z,31.01
2022-08-28T01:09:53.461Z,31.17
2022-08-28T01:12:24.312Z,31.22
2022-08-28T01:14:55.330Z,31.22
2022-08-28T01:17:24.302Z,31.05
2022-08-28T01:19:57.412Z,31.01
2022-08-28T01:22:34.121Z,31.04
2022-08-28T01:25:03.238Z,31.00
2022-08-28T01:27:29.936Z,30.89
2022-08-28T01:29:57.493Z,30.95
2022-08-28T01:32:36.520Z,30.83
2022-08-28T01:35:04.686Z,30.84
2022-08-28T01:37:31.880Z,30.79
2022-08-28T01:39:58.837Z,30.62
2022-08-28T01:42:26.179Z,30.38
2022-08-28T01:44:54.402Z,30.49
2022-08-28T01:47:21.650Z,30.45
2022-08-28T01:49:49.142Z,30.60
2022-08-28T01:52:15.731Z,30.28
2022-08-28T01:54:42.287Z,30.54
2022-08-28T01:57:09.086Z,30.65
2022-08-28T01:59:36.205Z,31.10
2022-08-28T02:02:03.992Z,30.99
2022-08-28T02:04:32.400Z,30.32
2022-08-28T02:06:59.264Z,30.42
2022-08-28T02:09:25.894Z,29.98
2022-08-28T02:11:52.640Z,30.12
2022-08-28T02:14:19.308Z,30.35
2022-08-28T02:16:46.474Z,30.41
2022-08-28T02:19:13.072Z,30.05
2022-08-28T02:21:40.014Z,30.16
2022-08-28T02:24:07.139Z,29.50
2022-08-28T02:26:34.558Z,29.80
2022-08-28T02:29:01.404Z,29.86
2022-08-28T02:31:28.159Z,30.10
2022-08-28T02:33:55.808Z,29.72
2022-08-28T02:36:23.110Z,29.85
2022-08-28T02:38:56.827Z,29.84
2022-08-28T02:41:24.754Z,29.69
2022-08-28T02:43:51.666Z,29.98
2022-08-28T02:46:18.233Z,29.62
2022-08-28T02:48:45.547Z,29.86
2022-08-28T02:51:14.166Z,29.67
2022-08-28T02:53:42.026Z,29.53
2022-08-28T02:56:09.595Z,29.72
2022-08-28T02:58:36.476Z,29.92
2022-08-28T03:01:06.974Z,29.63
2022-08-28T03:03:34.304Z,29.98
2022-08-28T03:06:02.481Z,29.96
2022-08-28T03:08:30.042Z,29.38
2022-08-28T03:10:56.867Z,29.28
2022-08-28T03:13:27.064Z,29.83
2022-08-28T03:15:55.786Z,29.96
2022-08-28T03:18:24.360Z,29.32
2022-08-28T03:20:52.779Z,29.65
2022-08-28T03:23:28.604Z,29.30
2022-08-28T03:26:02.451Z,29.20
2022-08-28T03:28:33.026Z,29.15
2022-08-28T03:30:59.720Z,29.48
2022-08-28T03:33:27.134Z,29.49
2022-08-28T03:35:55.125Z,29.41
2022-08-28T03:38:22.306Z,29.36
2022-08-28T03:40:53.411Z,29.00
2022-08-28T03:43:22.376Z,29.37
2022-08-28T03:45:59.763Z,29.52
2022-08-28T03:48:35.839Z,29.61
2022-08-28T03:51:07.763Z,29.83
2022-08-28T03:53:34.927Z,29.63
2022-08-28T03:56:07.921Z,29.43
2022-08-28T03:58:34.547Z,29.63
2022-08-28T04:01:01.204Z,29.15
2022-08-28T04:03:28.132Z,29.68
2022-08-28T04:05:54.775Z,29.86
2022-08-28T04:08:22.602Z,29.91
2022-08-28T04:10:49.448Z,29.79
2022-08-28T04:13:18.783Z,29.72
2022-08-28T04:15:46.484Z,29.63
2022-08-28T04:18:13.473Z,29.82
2022-08-28T04:20:40.123Z,29.66
2022-08-28T04:23:09.778Z,29.92
2022-08-28T04:25:40.380Z,30.04
2022-08-28T04:28:06.952Z,29.63
2022-08-28T04:30:33.489Z,29.84
2022-08-28T04:33:00.060Z,29.70
2022-08-28T04:35:26.979Z,29.59
2022-08-28T04:37:55.538Z,29.30
2022-08-28T04:40:24.824Z,29.01
2022-08-28T04:42:51.683Z,29.76
2022-08-28T04:45:18.225Z,29.78
2022-08-28T04:47:44.842Z,29.92
2022-08-28T04:50:11.773Z,29.25
2022-08-28T04:52:38.393Z,29.62
2022-08-28T04:55:05.334Z,29.97
2022-08-28T04:57:36.101Z,29.83
2022-08-28T05:00:05.737Z,29.88
2022-08-28T05:02:32.740Z,29.63
2022-08-28T05:04:59.282Z,29.63
2022-08-28T05:07:25.854Z,29.96
2022-08-28T05:09:54.130Z,29.38
2022-08-28T05:12:20.823Z,29.44
2022-08-28T05:14:48.220Z,29.14
2022-08-28T05:17:15.270Z,29.88
2022-08-28T05:19:42.248Z,30.02
2022-08-28T05:22:11.667Z,30.23
2022-08-28T05:24:40.119Z,30.50
2022-08-28T05:27:07.521Z,29.83
2022-08-28T05:29:34.061Z,30.10
2022-08-28T05:32:01.180Z,29.36
2022-08-28T05:34:27.915Z,29.69
2022-08-28T05:36:54.554Z,29.99
2022-08-28T05:39:21.314Z,30.12
2022-08-28T05:41:48.058Z,30.46
2022-08-28T05:44:17.034Z,30.47
2022-08-28T05:46:47.824Z,30.43
2022-08-28T05:49:14.935Z,30.25
2022-08-28T05:51:42.658Z,30.18
2022-08-28T05:54:10.662Z,29.68
2022-08-28T05:56:40.425Z,30.08
2022-08-28T05:59:08.755Z,29.82
2022-08-28T06:01:39.674Z,29.43
2022-08-28T06:04:11.002Z,29.24
2022-08-28T06:06:39.699Z,29.52
2022-08-28T06:09:15.571Z,30.15
2022-08-28T06:11:46.215Z,30.57
2022-08-28T06:14:16.568Z,31.17
2022-08-28T06:16:47.191Z,31.77
2022-08-28T06:19:14.809Z,31.99
2022-08-28T06:21:41.790Z,32.92
2022-08-28T06:24:09.853Z,33.77
2022-08-28T06:26:36.802Z,35.35
2022-08-28T06:29:07.656Z,36.49
2022-08-28T06:31:34.975Z,38.14
2022-08-28T06:34:02.082Z,38.58
2022-08-28T06:36:31.250Z,38.82
2022-08-28T06:38:59.556Z,39.42
2022-08-28T06:41:27.286Z,40.58
2022-08-28T06:43:54.694Z,42.36
2022-08-28T06:46:21.953Z,43.59
2022-08-28T06:48:48.698Z,44.03
2022-08-28T06:51:15.254Z,44.46
2022-08-28T06:53:45.721Z,44.58
2022-08-28T06:56:25.698Z,44.45
2022-08-28T06:58:53.774Z,44.76
2022-08-28T07:01:24.098Z,45.94
2022-08-28T07:03:53.653Z,47.32
2022-08-28T07:06:22.127Z,48.72
2022-08-28T07:08:49.920Z,49.42
2022-08-28T07:11:29.088Z,50.74
2022-08-28T07:13:57.512Z,50.97
2022-08-28T07:16:28.017Z,49.81
2022-08-28T07:18:55.078Z,47.43
2022-08-28T07:21:22.092Z,45.82
2022-08-28T07:23:48.794Z,46.15
2022-08-28T07:26:19.120Z,45.44
2022-08-28T07:28:46.372Z,46.47
2022-08-28T07:31:19.065Z,46.66
2022-08-28T07:33:46.113Z,47.08
2022-08-28T07:36:29.593Z,46.86
2022-08-28T07:38:58.878Z,46.21
2022-08-28T07:41:28.620Z,45.91
2022-08-28T07:44:13.882Z,46.61
2022-08-28T07:46:41.177Z,47.87
2022-08-28T07:49:08.727Z,48.10
2022-08-28T07:51:36.149Z,48.70
2022-08-28T07:54:03.889Z,49.36
2022-08-28T07:56:31.717Z,49.53
2022-08-28T07:59:03.262Z,50.49
2022-08-28T08:01:31.372Z,49.92
2022-08-28T08:04:01.656Z,49.51
2022-08-28T08:06:33.828Z,49.59
2022-08-28T08:09:01.792Z,47.97
2022-08-28T08:11:28.396Z,47.82
2022-08-28T08:14:03.814Z,47.66
2022-08-28T08:16:41.187Z,46.06
2022-08-28T08:19:10.373Z,44.96
2022-08-28T08:21:37.762Z,44.76
2022-08-28T08:24:04.746Z,45.89
2022-08-28T08:26:31.494Z,46.17
2022-08-28T08:28:58.831Z,46.71
2022-08-28T08:31:32.374Z,45.42
2022-08-28T08:34:02.425Z,44.18
2022-08-28T08:36:30.690Z,43.14
2022-08-28T08:39:00.338Z,42.43
2022-08-28T08:41:31.641Z,42.13
2022-08-28T08:44:08.810Z,42.03
2022-08-28T08:46:46.229Z,41.62
2022-08-28T08:49:22.579Z,42.60
2022-08-28T08:52:13.273Z,44.12
2022-08-28T08:54:45.396Z,44.10
2022-08-28T08:57:14.786Z,43.75
2022-08-28T08:59:41.801Z,42.43
2022-08-28T09:02:18.060Z,41.89
2022-08-28T09:04:50.440Z,41.10
2022-08-28T09:07:26.047Z,40.84
2022-08-28T09:09:57.784Z,40.57
2022-08-28T09:12:29.319Z,40.74
2022-08-28T09:15:09.782Z,40.14
2022-08-28T09:17:47.977Z,40.62
2022-08-28T09:20:32.504Z,40.45
2022-08-28T09:23:00.566Z,40.49
2022-08-28T09:25:44.437Z,39.24
2022-08-28T09:28:34.235Z,39.68
2022-08-28T09:31:13.681Z,38.85
2022-08-28T09:33:48.730Z,38.31
2022-08-28T09:36:27.862Z,38.41
2022-08-28T09:39:13.142Z,38.18
2022-08-28T09:42:06.801Z,37.90
2022-08-28T09:44:33.795Z,37.92
2022-08-28T09:47:01.241Z,38.13
2022-08-28T09:49:30.152Z,38.80
2022-08-28T09:52:01.919Z,38.70
2022-08-28T09:54:40.324Z,38.28
2022-08-28T09:57:08.366Z,39.39
2022-08-28T09:59:34.947Z,38.63
2022-08-28T10:02:24.387Z,38.47
2022-08-28T10:05:10.691Z,39.08
2022-08-28T10:07:53.197Z,39.29
2022-08-28T10:10:41.546Z,39.33
2022-08-28T10:13:27.301Z,38.76
2022-08-28T10:16:23.312Z,38.09
2022-08-28T10:19:19.578Z,37.00
2022-08-28T10:22:10.758Z,36.20
2022-08-28T10:24:54.293Z,36.68
2022-08-28T10:27:59.608Z,36.40
2022-08-28T10:30:30.869Z,36.79
2022-08-28T10:33:41.165Z,36.65
2022-08-28T10:36:28.755Z,36.36
2022-08-28T10:39:22.462Z,37.00
2022-08-28T10:41:54.475Z,37.06
2022-08-28T10:44:33.598Z,37.87
2022-08-28T10:47:03.180Z,37.16
2022-08-28T10:49:40.982Z,38.27
2022-08-28T10:52:32.521Z,39.23
2022-08-28T10:55:12.551Z,39.11
2022-08-28T10:57:57.495Z,38.63
2022-08-28T11:00:26.714Z,37.93
2022-08-28T11:03:01.473Z,38.10
2022-08-28T11:05:33.623Z,37.84
2022-08-28T11:08:07.463Z,38.22
2022-08-28T11:10:37.457Z,38.75
2022-08-28T11:13:07.061Z,39.07
2022-08-28T11:15:37.121Z,38.96
2022-08-28T11:18:25.288Z,37.95
2022-08-28T11:21:16.774Z,38.03
2022-08-28T11:23:58.970Z,38.13
2022-08-28T11:26:35.374Z,37.07
2022-08-28T11:29:04.526Z,36.52
2022-08-28T11:31:35.134Z,36.97
2022-08-28T11:34:02.850Z,36.52
2022-08-28T11:36:30.266Z,36.22
2022-08-28T11:38:57.594Z,36.42
2022-08-28T11:41:27.992Z,36.81
2022-08-28T11:44:09.895Z,38.11
2022-08-28T11:46:42.511Z,38.38
2022-08-28T11:49:29.475Z,38.74
2022-08-28T11:52:02.951Z,38.47
2022-08-28T11:55:15.066Z,37.99
2022-08-28T12:00:51.005Z,36.59
2022-08-28T12:03:37.857Z,36.35
2022-08-28T12:06:07.271Z,36.97
2022-08-28T12:08:48.921Z,37.12
2022-08-28T12:11:40.348Z,36.96
2022-08-28T12:14:25.723Z,38.18
2022-08-28T12:16:58.193Z,37.30
2022-08-28T12:19:55.491Z,36.56
2022-08-28T12:22:26.835Z,36.77
2022-08-28T12:25:04.394Z,37.58
2022-08-28T12:27:31.863Z,37.51
2022-08-28T12:30:02.207Z,37.06
2022-08-28T12:32:40.972Z,36.52
2022-08-28T12:35:23.976Z,36.78
2022-08-28T12:37:53.607Z,37.26
2022-08-28T12:40:27.447Z,38.02
2022-08-28T12:43:00.252Z,38.37
2022-08-28T12:45:34.988Z,37.98
2022-08-28T12:48:10.550Z,38.19
2022-08-28T12:50:38.971Z,37.96
2022-08-28T12:53:12.520Z,36.95
2022-08-28T12:55:39.992Z,36.68
2022-08-28T12:58:27.059Z,37.02
2022-08-28T13:00:59.547Z,37.72
2022-08-28T13:03:26.544Z,36.70
2022-08-28T13:06:09.238Z,37.12
2022-08-28T13:08:37.472Z,37.49
2022-08-28T13:11:04.983Z,36.74
2022-08-28T13:13:37.497Z,35.84
2022-08-28T13:16:08.104Z,36.17
2022-08-28T13:18:44.163Z,36.16
2022-08-28T13:21:32.960Z,35.87
2022-08-28T13:24:21.107Z,35.97
2022-08-28T13:27:03.923Z,36.33
2022-08-28T13:29:32.345Z,36.68
2022-08-28T13:32:04.912Z,37.64
2022-08-28T13:34:34.738Z,37.91
2022-08-28T13:37:04.271Z,37.86
2022-08-28T13:39:38.953Z,37.92
2022-08-28T13:42:11.894Z,37.95
2022-08-28T13:44:48.465Z,37.32
2022-08-28T13:47:15.763Z,36.88
2022-08-28T13:49:43.110Z,37.33
2022-08-28T13:52:10.512Z,37.51
2022-08-28T13:54:39.177Z,36.82
2022-08-28T13:57:10.588Z,36.15
2022-08-28T13:59:37.125Z,35.85
2022-08-28T14:02:24.955Z,35.39
2022-08-28T14:04:51.573Z,34.54
2022-08-28T14:07:18.539Z,35.15
2022-08-28T14:09:46.142Z,35.31
2022-08-28T14:12:12.661Z,35.10
2022-08-28T14:14:40.137Z,35.25
2022-08-28T14:17:08.497Z,35.74
2022-08-28T14:19:35.825Z,35.66
2022-08-28T14:22:03.919Z,35.26
2022-08-28T14:24:31.184Z,35.06
2022-08-28T14:26:57.733Z,35.25
2022-08-28T14:29:24.837Z,34.76
2022-08-28T14:31:51.467Z,36.08
2022-08-28T14:34:22.516Z,35.32
2022-08-28T14:36:55.192Z,35.14
2022-08-28T14:39:26.495Z,35.52
2022-08-28T14:41:54.684Z,35.20
2022-08-28T14:44:23.120Z,35.39
2022-08-28T14:46:52.720Z,35.30
2022-08-28T14:49:25.610Z,36.23
2022-08-28T14:51:54.230Z,36.01
2022-08-28T14:54:24.255Z,36.10
2022-08-28T14:56:52.046Z,35.57
2022-08-28T14:59:24.439Z,34.75
2022-08-28T15:01:52.773Z,35.54
2022-08-28T15:04:22.856Z,35.93
2022-08-28T15:06:51.507Z,35.82
2022-08-28T15:09:19.417Z,35.80
2022-08-28T15:11:46.691Z,36.13
2022-08-28T15:14:13.410Z,35.83
2022-08-28T15:16:44.129Z,35.34
2022-08-28T15:19:13.218Z,35.21
2022-08-28T15:21:49.457Z,35.47
2022-08-28T15:24:19.093Z,35.31
2022-08-28T15:26:46.776Z,35.14
2022-08-28T15:29:13.830Z,35.39
2022-08-28T15:31:43.760Z,35.41
2022-08-28T15:34:18.511Z,35.26
2022-08-28T15:36:50.959Z,34.24
2022-08-28T15:39:41.902Z,34.59
2022-08-28T15:42:09.365Z,35.03
2022-08-28T15:44:36.154Z,34.76
2022-08-28T15:47:04.769Z,34.60
2022-08-28T15:49:36.099Z,35.11
2022-08-28T15:52:10.882Z,34.28
2022-08-28T15:54:38.275Z,34.71
2022-08-28T15:57:05.070Z,35.08
2022-08-28T15:59:39.987Z,35.47
2022-08-28T16:02:22.762Z,35.20
2022-08-28T16:04:49.688Z,35.75
2022-08-28T16:07:17.427Z,35.92
2022-08-28T16:09:44.822Z,36.22
2022-08-28T16:12:11.356Z,35.13
2022-08-28T16:14:38.033Z,34.67
2022-08-28T16:17:05.766Z,35.32
2022-08-28T16:19:39.778Z,35.50
2022-08-28T16:22:06.866Z,34.64
2022-08-28T16:24:33.751Z,34.33
2022-08-28T16:27:00.325Z,35.10
2022-08-28T16:29:28.480Z,34.28
2022-08-28T16:31:56.532Z,34.03
2022-08-28T16:34:26.088Z,34.45
2022-08-28T16:36:54.884Z,34.38
2022-08-28T16:39:21.794Z,33.85
2022-08-28T16:41:50.120Z,33.87
2022-08-28T16:44:21.569Z,34.09
2022-08-28T16:46:48.819Z,33.22
2022-08-28T16:49:15.921Z,33.93
2022-08-28T16:51:42.473Z,34.33
2022-08-28T16:54:09.463Z,33.95
2022-08-28T16:56:36.963Z,33.08
2022-08-28T16:59:04.003Z,33.70
2022-08-28T17:01:40.804Z,33.20
2022-08-28T17:04:09.590Z,32.49
2022-08-28T17:06:36.157Z,32.64
2022-08-28T17:09:03.080Z,32.49
2022-08-28T17:11:29.707Z,32.38
2022-08-28T17:13:56.692Z,32.79
2022-08-28T17:16:25.291Z,31.91
2022-08-28T17:18:52.735Z,31.92
2022-08-28T17:21:39.837Z,32.59
2022-08-28T17:24:07.138Z,31.66
2022-08-28T17:26:34.547Z,31.63
2022-08-28T17:29:01.093Z,31.54
2022-08-28T17:31:27.686Z,31.54
2022-08-28T17:33:54.314Z,31.94
2022-08-28T17:36:33.607Z,31.84
2022-08-28T17:39:03.802Z,32.21
2022-08-28T17:41:30.473Z,32.03
2022-08-28T17:43:57.096Z,31.95
2022-08-28T17:46:23.645Z,32.07
2022-08-28T17:48:55.800Z,32.40
2022-08-28T17:51:33.099Z,31.91
2022-08-28T17:54:13.398Z,31.83
2022-08-28T17:56:40.654Z,31.48
2022-08-28T17:59:07.651Z,31.53
2022-08-28T18:01:36.053Z,31.81
2022-08-28T18:04:03.191Z,31.20
2022-08-28T18:06:29.721Z,31.19
2022-08-28T18:08:56.428Z,31.66
2022-08-28T18:11:23.760Z,31.48
2022-08-28T18:13:50.355Z,31.71
2022-08-28T18:16:17.526Z,31.31
2022-08-28T18:18:45.159Z,31.89
2022-08-28T18:21:13.300Z,31.91
2022-08-28T18:23:40.538Z,31.64
2022-08-28T18:26:08.443Z,32.12
2022-08-28T18:28:36.627Z,32.64
2022-08-28T18:31:05.942Z,32.63
2022-08-28T18:33:33.194Z,32.87
2022-08-28T18:35:59.867Z,32.85
2022-08-28T18:38:28.380Z,32.96
2022-08-28T18:40:55.935Z,33.07
2022-08-28T18:43:23.935Z,33.11
2022-08-28T18:45:51.384Z,32.87
2022-08-28T18:48:19.153Z,32.99
2022-08-28T18:50:47.941Z,33.01
2022-08-28T18:53:15.840Z,33.06
2022-08-28T18:55:43.161Z,32.98
2022-08-28T18:58:10.396Z,32.99
2022-08-28T19:00:42.978Z,32.90
2022-08-28T19:03:09.858Z,33.02
2022-08-28T19:05:37.782Z,32.95
2022-08-28T19:08:04.887Z,32.92
2022-08-28T19:10:34.366Z,32.97
2022-08-28T19:13:02.138Z,33.07
2022-08-28T19:15:29.130Z,32.73
2022-08-28T19:17:56.483Z,32.68
2022-08-28T19:20:23.492Z,32.50
2022-08-28T19:22:50.042Z,32.45
2022-08-28T19:25:22.506Z,32.26
2022-08-28T19:27:59.741Z,32.36
2022-08-28T19:30:28.857Z,32.34
2022-08-28T19:32:55.885Z,32.32
2022-08-28T19:35:24.567Z,32.17
2022-08-28T19:37:52.665Z,32.02
2022-08-28T19:40:20.773Z,31.93
2022-08-28T19:42:47.936Z,31.83
2022-08-28T19:45:15.083Z,31.63
2022-08-28T19:47:41.843Z,31.47
2022-08-28T19:50:11.011Z,31.29
2022-08-28T19:52:38.747Z,31.44
2022-08-28T19:55:06.690Z,31.65
2022-08-28T19:57:33.837Z,31.76
2022-08-28T20:00:00.497Z,31.87
2022-08-28T20:02:28.674Z,32.02
2022-08-28T20:04:55.512Z,32.08
2022-08-28T20:07:23.461Z,32.17
2022-08-28T20:09:50.601Z,32.16
2022-08-28T20:12:17.594Z,32.03
2022-08-28T20:14:44.584Z,32.16
2022-08-28T20:17:11.638Z,32.22
2022-08-28T20:19:38.490Z,32.02
2022-08-28T20:22:05.270Z,31.73
2022-08-28T20:24:31.880Z,31.64
2022-08-28T20:26:59.497Z,31.64
2022-08-28T20:29:26.526Z,31.75
2022-08-28T20:31:54.077Z,31.72
2022-08-28T20:34:21.322Z,31.96
2022-08-28T20:36:48.882Z,32.16
2022-08-28T20:39:16.037Z,31.78
2022-08-28T20:41:44.284Z,31.87
2022-08-28T20:44:12.924Z,31.85
2022-08-28T20:46:41.971Z,31.99
2022-08-28T20:49:11.105Z,31.74
2022-08-28T20:51:56.748Z,32.01
2022-08-28T20:54:37.141Z,31.96
2022-08-28T20:57:08.117Z,31.66
2022-08-28T20:59:40.207Z,31.91
2022-08-28T21:02:10.994Z,31.94
2022-08-28T21:04:39.309Z,32.00
2022-08-28T21:07:06.047Z,31.93
2022-08-28T21:09:39.538Z,31.81
2022-08-28T21:12:20.244Z,31.59
2022-08-28T21:14:51.478Z,31.66
2022-08-28T21:17:22.644Z,31.71
2022-08-28T21:19:58.613Z,31.69
2022-08-28T21:22:25.609Z,31.67
2022-08-28T21:24:52.145Z,31.80
2022-08-28T21:27:18.843Z,31.97
2022-08-28T21:29:46.026Z,31.84
2022-08-28T21:32:12.834Z,31.91
2022-08-28T21:34:39.607Z,31.68
2022-08-28T21:37:06.802Z,31.74
2022-08-28T21:39:34.870Z,31.65
2022-08-28T21:42:01.722Z,31.72
2022-08-28T21:44:28.999Z,31.53
2022-08-28T21:46:55.691Z,31.34
2022-08-28T21:49:22.984Z,31.42
2022-08-28T21:51:50.567Z,31.52
2022-08-28T21:54:19.558Z,31.61
2022-08-28T21:56:46.819Z,31.60
2022-08-28T21:59:17.170Z,31.83
2022-08-28T22:01:44.631Z,31.76
2022-08-28T22:04:11.472Z,31.78
2022-08-28T22:06:39.870Z,31.75
2022-08-28T22:09:07.600Z,31.39
2022-08-28T22:11:34.832Z,31.34
2022-08-28T22:14:01.474Z,31.33
2022-08-28T22:16:28.427Z,31.23
2022-08-28T22:18:55.160Z,31.35
2022-08-28T22:21:43.935Z,31.06
2022-08-28T22:24:12.091Z,31.33
2022-08-28T22:26:40.034Z,31.45
2022-08-28T22:29:07.881Z,31.43
2022-08-28T22:31:35.269Z,31.52
2022-08-28T22:34:04.263Z,31.38
2022-08-28T22:36:33.038Z,31.61
2022-08-28T22:38:59.618Z,31.28
2022-08-28T22:41:26.706Z,31.29
2022-08-28T22:43:53.271Z,31.53
2022-08-28T22:46:21.063Z,31.40
2022-08-28T22:48:48.562Z,31.56
2022-08-28T22:51:18.404Z,31.73
2022-08-28T22:53:47.002Z,31.33
2022-08-28T22:56:14.167Z,31.33
2022-08-28T22:58:40.736Z,31.49
2022-08-28T23:01:20.536Z,31.09
2022-08-28T23:03:48.336Z,31.35
2022-08-28T23:06:15.743Z,31.15
2022-08-28T23:08:42.437Z,31.48
2022-08-28T23:11:10.402Z,31.72
2022-08-28T23:13:37.588Z,30.83
2022-08-28T23:16:04.484Z,31.11
2022-08-28T23:18:46.285Z,31.31
2022-08-28T23:21:19.712Z,31.16
2022-08-28T23:23:46.707Z,31.08
2022-08-28T23:26:14.910Z,31.00
2022-08-28T23:28:43.193Z,30.54
2022-08-28T23:31:10.153Z,30.99
2022-08-28T23:33:37.222Z,30.95
2022-08-28T23:36:04.522Z,30.92
2022-08-28T23:38:31.300Z,30.54
2022-08-28T23:40:58.508Z,30.06
2022-08-28T23:43:25.347Z,29.89
2022-08-28T23:45:52.106Z,30.41
2022-08-28T23:48:18.910Z,30.43
2022-08-28T23:50:45.510Z,30.94
2022-08-28T23:53:12.078Z,30.94
2022-08-28T23:55:39.017Z,30.78
2022-08-28T23:58:06.412Z,30.52
